createdAt,value
2022-09-12T00:00:50.916Z,21.90
2022-09-12T00:03:17.479Z,21.89
2022-09-12T00:05:45.521Z,21.89
2022-09-12T00:08:13.035Z,21.89
2022-09-12T00:10:41.123Z,21.89
2022-09-12T00:13:08.661Z,21.88
2022-09-12T00:15:43.528Z,21.88
2022-09-12T00:18:14.564Z,21.88
2022-09-12T00:20:46.051Z,21.88
2022-09-12T00:23:13.135Z,21.87
2022-09-12T00:25:47.195Z,21.86
2022-09-12T00:28:15.712Z,21.86
2022-09-12T00:30:43.615Z,21.86
2022-09-12T00:33:11.430Z,21.85
2022-09-12T00:35:42.395Z,21.86
2022-09-12T00:38:08.900Z,21.86
2022-09-12T00:40:35.980Z,21.86
2022-09-12T00:43:02.471Z,21.87
2022-09-12T00:45:30.306Z,21.85
2022-09-12T00:48:01.056Z,21.84
2022-09-12T00:50:28.041Z,21.85
2022-09-12T00:53:08.389Z,21.85
2022-09-12T00:55:41.955Z,21.85
2022-09-12T00:58:18.920Z,21.85
2022-09-12T01:00:47.228Z,21.85
2022-09-12T01:03:17.531Z,21.85
2022-09-12T01:06:01.368Z,21.85
2022-09-12T01:08:29.118Z,21.84
2022-09-12T01:10:57.451Z,21.84
2022-09-12T01:13:24.439Z,21.83
2022-09-12T01:15:50.990Z,21.84
2022-09-12T01:18:42.349Z,21.84
2022-09-12T01:21:16.617Z,21.83
2022-09-12T01:24:33.614Z,21.83
2022-09-12T01:27:14.842Z,21.83
2022-09-12T01:29:59.791Z,21.83
2022-09-12T01:32:57.123Z,21.83
2022-09-12T01:35:32.535Z,21.81
2022-09-12T01:38:11.857Z,21.82
2022-09-12T01:40:51.006Z,21.82
2022-09-12T01:43:36.232Z,21.81
2022-09-12T01:46:15.074Z,21.81
2022-09-12T01:49:15.828Z,21.81
2022-09-12T01:51:57.088Z,21.81
2022-09-12T01:54:33.964Z,21.81
2022-09-12T01:57:08.722Z,21.81
2022-09-12T01:59:41.070Z,21.81
2022-09-12T02:02:24.081Z,21.81
2022-09-12T02:05:02.640Z,21.81
2022-09-12T02:07:37.948Z,21.81
2022-09-12T02:10:15.260Z,21.80
2022-09-12T02:12:52.013Z,21.80
2022-09-12T02:15:23.918Z,21.79
2022-09-12T02:17:52.062Z,21.79
2022-09-12T02:20:46.989Z,21.79
2022-09-12T02:23:17.577Z,21.79
2022-09-12T02:25:47.634Z,21.79
2022-09-12T02:28:18.181Z,21.78
2022-09-12T02:31:09.983Z,21.78
2022-09-12T02:33:53.303Z,21.78
2022-09-12T02:36:50.199Z,21.79
2022-09-12T02:39:21.288Z,21.78
2022-09-12T02:41:51.707Z,21.78
2022-09-12T02:44:19.019Z,21.77
2022-09-12T02:46:48.680Z,21.78
2022-09-12T02:49:17.089Z,21.77
2022-09-12T02:51:45.467Z,21.77
2022-09-12T02:54:13.827Z,21.77
2022-09-12T02:56:42.838Z,21.77
2022-09-12T02:59:11.956Z,21.77
2022-09-12T03:01:41.607Z,21.76
2022-09-12T03:04:43.667Z,21.76
2022-09-12T03:07:43.111Z,21.76
2022-09-12T03:10:33.115Z,21.76
2022-09-12T03:13:25.962Z,21.76
2022-09-12T03:16:23.485Z,21.76
2022-09-12T03:19:22.314Z,21.76
2022-09-12T03:22:00.895Z,21.74
2022-09-12T03:24:38.730Z,21.75
2022-09-12T03:27:13.978Z,21.74
2022-09-12T03:29:42.701Z,21.75
2022-09-12T03:32:09.207Z,21.74
2022-09-12T03:34:35.779Z,21.74
2022-09-12T03:37:02.668Z,21.74
2022-09-12T03:39:29.237Z,21.73
2022-09-12T03:41:55.899Z,21.73
2022-09-12T03:44:23.342Z,21.73
2022-09-12T03:46:50.195Z,21.73
2022-09-12T03:49:17.617Z,21.73
2022-09-12T03:51:44.205Z,21.73
2022-09-12T03:54:10.990Z,21.73
2022-09-12T03:56:37.543Z,21.73
2022-09-12T03:59:07.196Z,21.73
2022-09-12T04:01:34.509Z,21.74
2022-09-12T04:04:01.027Z,21.73
2022-09-12T04:06:27.597Z,21.73
2022-09-12T04:08:55.226Z,21.73
2022-09-12T04:11:22.725Z,21.72
2022-09-12T04:13:49.753Z,21.71
2022-09-12T04:16:17.666Z,21.72
2022-09-12T04:18:44.842Z,21.72
2022-09-12T04:21:13.074Z,21.71
2022-09-12T04:23:39.775Z,21.71
2022-09-12T04:26:06.934Z,21.70
2022-09-12T04:28:35.121Z,21.70
2022-09-12T04:31:15.588Z,21.69
2022-09-12T04:33:42.208Z,21.69
2022-09-12T04:36:12.222Z,21.69
2022-09-12T04:38:39.055Z,21.69
2022-09-12T04:41:17.956Z,21.68
2022-09-12T04:43:46.576Z,21.68
2022-09-12T04:46:16.631Z,21.68
2022-09-12T04:48:44.089Z,21.68
2022-09-12T04:51:13.669Z,21.67
2022-09-12T04:53:40.896Z,21.67
2022-09-12T04:56:10.821Z,21.68
2022-09-12T04:58:38.694Z,21.67
2022-09-12T05:01:10.509Z,21.67
2022-09-12T05:03:40.396Z,21.67
2022-09-12T05:06:08.936Z,21.67
2022-09-12T05:08:35.943Z,21.66
2022-09-12T05:11:05.108Z,21.66
2022-09-12T05:13:31.798Z,21.65
2022-09-12T05:16:02.192Z,21.66
2022-09-12T05:18:31.471Z,21.66
2022-09-12T05:21:00.223Z,21.66
2022-09-12T05:23:27.746Z,21.67
2022-09-12T05:25:56.496Z,21.65
2022-09-12T05:28:24.091Z,21.65
2022-09-12T05:31:04.521Z,21.66
2022-09-12T05:33:32.175Z,21.65
2022-09-12T05:35:59.484Z,21.66
2022-09-12T05:38:26.095Z,21.65
2022-09-12T05:40:52.589Z,21.65
2022-09-12T05:43:20.355Z,21.64
2022-09-12T05:45:46.929Z,21.65
2022-09-12T05:48:13.599Z,21.63
2022-09-12T05:50:40.106Z,21.64
2022-09-12T05:53:06.581Z,21.65
2022-09-12T05:55:33.186Z,21.63
2022-09-12T05:57:59.745Z,21.63
2022-09-12T06:00:29.300Z,21.63
2022-09-12T06:02:58.062Z,21.62
2022-09-12T06:05:24.964Z,21.63
2022-09-12T06:07:51.720Z,21.63
2022-09-12T06:10:18.210Z,21.62
2022-09-12T06:12:44.766Z,21.63
2022-09-12T06:15:11.614Z,21.63
2022-09-12T06:17:38.175Z,21.62
2022-09-12T06:20:04.966Z,21.63
2022-09-12T06:22:31.672Z,21.62
2022-09-12T06:24:58.257Z,21.63
2022-09-12T06:27:24.763Z,21.62
2022-09-12T06:29:51.675Z,21.62
2022-09-12T06:32:18.168Z,21.63
2022-09-12T06:34:47.674Z,21.62
2022-09-12T06:37:14.306Z,21.61
2022-09-12T06:39:40.826Z,21.61
2022-09-12T06:42:07.628Z,21.62
2022-09-12T06:44:34.118Z,21.61
2022-09-12T06:47:00.764Z,21.60
2022-09-12T06:49:27.239Z,21.61
2022-09-12T06:51:53.743Z,21.60
2022-09-12T06:54:20.364Z,21.60
2022-09-12T06:56:46.957Z,21.60
2022-09-12T06:59:13.885Z,21.60
2022-09-12T07:01:41.801Z,21.60
2022-09-12T07:04:08.950Z,21.60
2022-09-12T07:06:41.054Z,21.60
2022-09-12T07:09:12.387Z,21.60
2022-09-12T07:11:40.184Z,21.60
2022-09-12T07:14:09.859Z,21.60
2022-09-12T07:16:36.741Z,21.60
2022-09-12T07:19:05.235Z,21.59
2022-09-12T07:21:32.024Z,21.60
2022-09-12T07:23:58.600Z,21.59
2022-09-12T07:26:27.482Z,21.59
2022-09-12T07:29:07.959Z,21.59
2022-09-12T07:31:39.717Z,21.59
2022-09-12T07:34:06.871Z,21.58
2022-09-12T07:36:33.438Z,21.60
2022-09-12T07:39:00.047Z,21.58
2022-09-12T07:41:29.084Z,21.59
2022-09-12T07:43:58.223Z,21.58
2022-09-12T07:46:26.583Z,21.60
2022-09-12T07:48:54.591Z,21.60
2022-09-12T07:51:22.160Z,21.59
2022-09-12T07:53:51.899Z,21.58
2022-09-12T07:56:19.945Z,21.59
2022-09-12T07:58:47.252Z,21.59
2022-09-12T08:01:13.639Z,21.59
2022-09-12T08:03:42.123Z,21.60
2022-09-12T08:06:15.744Z,21.59
2022-09-12T08:08:43.064Z,21.59
2022-09-12T08:11:10.934Z,21.59
2022-09-12T08:13:39.114Z,21.59
2022-09-12T08:16:14.150Z,21.59
2022-09-12T08:18:40.958Z,21.58
2022-09-12T08:21:19.676Z,21.58
2022-09-12T08:23:46.546Z,21.57
2022-09-12T08:26:13.788Z,21.58
2022-09-12T08:28:45.577Z,21.58
2022-09-12T08:31:14.755Z,21.60
2022-09-12T08:33:41.541Z,21.61
2022-09-12T08:36:12.751Z,21.61
2022-09-12T08:38:42.216Z,21.62
2022-09-12T08:41:18.261Z,21.61
2022-09-12T08:44:22.571Z,21.62
2022-09-12T08:47:07.779Z,21.64
2022-09-12T08:49:38.023Z,21.64
2022-09-12T08:52:15.544Z,21.65
2022-09-12T08:54:45.552Z,21.66
2022-09-12T08:57:15.284Z,21.66
2022-09-12T08:59:46.767Z,21.67
2022-09-12T09:02:42.118Z,21.68
2022-09-12T09:05:20.374Z,21.69
2022-09-12T09:07:49.994Z,21.70
2022-09-12T09:10:46.967Z,21.71
2022-09-12T09:13:42.538Z,21.73
2022-09-12T09:16:21.534Z,21.74
2022-09-12T09:18:49.418Z,21.75
2022-09-12T09:21:42.445Z,21.78
2022-09-12T09:24:13.115Z,21.78
2022-09-12T09:26:46.780Z,21.79
2022-09-12T09:29:19.774Z,21.81
2022-09-12T09:31:51.722Z,21.81
2022-09-12T09:34:21.791Z,21.81
2022-09-12T09:37:03.363Z,21.83
2022-09-12T09:39:45.018Z,21.83
2022-09-12T09:42:30.675Z,21.83
2022-09-12T09:45:00.136Z,21.86
2022-09-12T09:47:26.712Z,21.87
2022-09-12T09:49:53.176Z,21.86
2022-09-12T09:52:27.624Z,21.85
2022-09-12T09:55:01.874Z,21.86
2022-09-12T09:57:39.157Z,21.86
2022-09-12T10:00:32.418Z,21.87
2022-09-12T10:03:14.275Z,21.88
2022-09-12T10:05:55.249Z,21.90
2022-09-12T10:08:27.440Z,21.90
2022-09-12T10:11:22.799Z,21.91
2022-09-12T10:13:58.124Z,21.91
2022-09-12T10:16:30.736Z,21.91
2022-09-12T10:19:32.859Z,21.91
2022-09-12T10:22:00.963Z,21.91
2022-09-12T10:24:32.752Z,21.91
2022-09-12T10:27:21.331Z,21.91
2022-09-12T10:29:53.640Z,21.92
2022-09-12T10:32:42.463Z,21.92
2022-09-12T10:35:17.712Z,21.93
2022-09-12T10:37:58.522Z,21.93
2022-09-12T10:40:28.331Z,21.93
2022-09-12T10:43:00.580Z,21.92
2022-09-12T10:45:35.904Z,21.93
2022-09-12T10:48:20.736Z,21.92
2022-09-12T10:50:47.324Z,21.92
2022-09-12T10:53:20.334Z,21.90
2022-09-12T10:56:02.311Z,21.86
2022-09-12T10:58:53.678Z,21.84
2022-09-12T11:01:32.143Z,21.84
2022-09-12T11:04:13.879Z,21.83
2022-09-12T11:06:55.376Z,21.81
2022-09-12T11:09:26.983Z,21.81
2022-09-12T11:12:19.741Z,21.80
2022-09-12T11:14:48.753Z,21.80
2022-09-12T11:17:48.912Z,21.78
2022-09-12T11:20:43.276Z,21.78
2022-09-12T11:23:09.738Z,21.78
2022-09-12T11:26:04.467Z,21.77
2022-09-12T11:28:56.955Z,21.76
2022-09-12T11:31:48.775Z,21.77
2022-09-12T11:34:44.060Z,21.75
2022-09-12T11:37:29.031Z,21.75
2022-09-12T11:40:00.403Z,21.74
2022-09-12T11:42:35.101Z,21.74
2022-09-12T11:45:12.809Z,21.73
2022-09-12T11:47:40.902Z,21.73
2022-09-12T11:50:20.768Z,21.74
2022-09-12T11:52:47.250Z,21.72
2022-09-12T11:55:25.792Z,21.72
2022-09-12T11:57:59.301Z,21.72
2022-09-12T12:00:34.250Z,21.71
2022-09-12T12:03:06.839Z,21.71
2022-09-12T12:06:04.618Z,21.70
2022-09-12T12:08:37.718Z,21.71
2022-09-12T12:11:06.058Z,21.71
2022-09-12T12:13:34.267Z,21.70
2022-09-12T12:16:14.170Z,21.71
2022-09-12T12:18:42.756Z,21.70
2022-09-12T12:21:27.230Z,21.70
2022-09-12T12:24:07.327Z,21.70
2022-09-12T12:26:39.937Z,21.69
2022-09-12T12:29:13.524Z,21.69
2022-09-12T12:31:59.163Z,21.69
2022-09-12T12:34:39.935Z,21.70
2022-09-12T12:37:22.082Z,21.69
2022-09-12T12:40:04.964Z,21.70
2022-09-12T12:42:34.749Z,21.69
2022-09-12T12:45:01.188Z,21.69
2022-09-12T12:47:59.961Z,21.69
2022-09-12T12:50:29.289Z,21.68
2022-09-12T12:53:17.562Z,21.68
2022-09-12T12:55:44.014Z,21.67
2022-09-12T12:58:37.551Z,21.68
2022-09-12T13:01:10.287Z,21.67
2022-09-12T13:03:38.796Z,21.66
2022-09-12T13:06:20.583Z,21.66
2022-09-12T13:09:00.177Z,21.67
2022-09-12T13:11:39.805Z,21.67
2022-09-12T13:14:27.835Z,21.66
2022-09-12T13:16:59.279Z,21.66
2022-09-12T13:19:32.506Z,21.67
2022-09-12T13:22:07.614Z,21.66
2022-09-12T13:24:42.751Z,21.67
2022-09-12T13:27:24.371Z,21.67
2022-09-12T13:30:09.316Z,21.66
2022-09-12T13:32:36.074Z,21.66
2022-09-12T13:35:13.414Z,21.66
2022-09-12T13:37:55.815Z,21.66
2022-09-12T13:40:28.575Z,21.66
2022-09-12T13:43:15.349Z,21.67
2022-09-12T13:45:43.737Z,21.66
2022-09-12T13:48:30.915Z,21.66
2022-09-12T13:51:00.618Z,21.66
2022-09-12T13:53:32.200Z,21.66
2022-09-12T13:56:00.121Z,21.66
2022-09-12T13:58:32.944Z,21.66
2022-09-12T14:01:05.023Z,21.66
2022-09-12T14:03:56.833Z,21.65
2022-09-12T14:06:26.328Z,21.66
2022-09-12T14:08:53.387Z,21.66
2022-09-12T14:11:28.762Z,21.65
2022-09-12T14:13:56.213Z,21.67
2022-09-12T14:16:24.594Z,21.67
2022-09-12T14:18:54.611Z,21.66
2022-09-12T14:21:34.116Z,21.66
2022-09-12T14:24:01.767Z,21.67
2022-09-12T14:26:34.147Z,21.67
2022-09-12T14:29:01.896Z,21.67
2022-09-12T14:31:36.805Z,21.66
2022-09-12T14:34:19.740Z,21.67
2022-09-12T14:36:49.941Z,21.67
2022-09-12T14:39:19.659Z,21.67
2022-09-12T14:41:49.258Z,21.66
2022-09-12T14:44:24.285Z,21.67
2022-09-12T14:46:51.630Z,21.68
2022-09-12T14:49:21.272Z,21.67
2022-09-12T14:51:51.423Z,21.67
2022-09-12T14:54:30.409Z,21.66
2022-09-12T14:57:19.283Z,21.67
2022-09-12T14:59:45.773Z,21.66
2022-09-12T15:02:21.231Z,21.66
2022-09-12T15:04:49.310Z,21.66
2022-09-12T15:07:15.811Z,21.66
2022-09-12T15:09:47.072Z,21.65
2022-09-12T15:12:13.904Z,21.65
2022-09-12T15:14:40.423Z,21.65
2022-09-12T15:17:07.131Z,21.66
2022-09-12T15:19:33.617Z,21.65
2022-09-12T15:22:00.157Z,21.66
2022-09-12T15:24:26.630Z,21.66
2022-09-12T15:26:53.787Z,21.66
2022-09-12T15:29:20.318Z,21.65
2022-09-12T15:31:50.822Z,21.66
2022-09-12T15:34:17.375Z,21.66
2022-09-12T15:36:43.858Z,21.66
2022-09-12T15:39:10.641Z,21.66
2022-09-12T15:41:38.363Z,21.66
2022-09-12T15:44:06.193Z,21.66
2022-09-12T15:46:32.718Z,21.65
2022-09-12T15:48:59.295Z,21.67
2022-09-12T15:51:25.778Z,21.68
2022-09-12T15:53:52.807Z,21.74
2022-09-12T15:56:21.237Z,21.77
2022-09-12T15:58:58.245Z,21.79
2022-09-12T16:01:26.407Z,21.82
2022-09-12T16:03:52.847Z,21.83
2022-09-12T16:06:19.332Z,21.85
2022-09-12T16:08:45.921Z,21.85
2022-09-12T16:11:19.966Z,21.87
2022-09-12T16:13:46.457Z,21.89
2022-09-12T16:16:13.040Z,21.91
2022-09-12T16:18:40.614Z,21.91
2022-09-12T16:21:11.287Z,21.93
2022-09-12T16:23:43.210Z,21.94
2022-09-12T16:26:09.703Z,21.95
2022-09-12T16:28:36.378Z,21.96
2022-09-12T16:31:05.261Z,21.97
2022-09-12T16:33:32.566Z,21.98
2022-09-12T16:36:06.363Z,21.99
2022-09-12T16:38:33.814Z,21.99
2022-09-12T16:41:05.544Z,21.99
2022-09-12T16:43:34.051Z,21.99
2022-09-12T16:46:11.479Z,22.00
2022-09-12T16:48:42.590Z,22.01
2022-09-12T16:51:09.795Z,22.02
2022-09-12T16:53:38.302Z,22.02
2022-09-12T16:56:06.234Z,22.01
2022-09-12T16:58:38.502Z,22.02
2022-09-12T17:01:09.043Z,22.02
2022-09-12T17:03:36.095Z,22.02
2022-09-12T17:06:11.996Z,22.03
2022-09-12T17:08:41.441Z,22.04
2022-09-12T17:11:19.747Z,22.04
2022-09-12T17:14:04.356Z,22.03
2022-09-12T17:16:36.629Z,22.01
2022-09-12T17:19:04.231Z,22.00
2022-09-12T17:21:31.287Z,22.00
2022-09-12T17:23:59.232Z,21.99
2022-09-12T17:26:26.730Z,21.99
2022-09-12T17:28:53.419Z,21.98
2022-09-12T17:31:20.167Z,21.98
2022-09-12T17:33:46.944Z,21.99
2022-09-12T17:36:16.590Z,21.98
2022-09-12T17:38:45.074Z,21.98
2022-09-12T17:41:17.576Z,21.98
2022-09-12T17:43:50.818Z,21.98
2022-09-12T17:46:20.809Z,21.98
2022-09-12T17:48:55.506Z,21.98
2022-09-12T17:51:24.867Z,21.99
2022-09-12T17:54:06.733Z,21.99
2022-09-12T17:56:34.584Z,21.99
2022-09-12T17:59:01.541Z,21.98
2022-09-12T18:01:48.236Z,21.99
2022-09-12T18:04:15.839Z,22.00
2022-09-12T18:06:47.911Z,22.01
2022-09-12T18:09:17.734Z,22.00
2022-09-12T18:11:45.479Z,22.01
2022-09-12T18:14:14.243Z,22.01
2022-09-12T18:16:41.607Z,22.02
2022-09-12T18:19:08.178Z,22.02
2022-09-12T18:21:34.767Z,22.01
2022-09-12T18:24:02.955Z,22.02
2022-09-12T18:26:30.682Z,22.02
2022-09-12T18:28:57.912Z,22.01
2022-09-12T18:31:27.449Z,22.02
2022-09-12T18:33:54.441Z,22.02
2022-09-12T18:36:22.031Z,22.01
2022-09-12T18:38:49.039Z,22.02
2022-09-12T18:41:19.265Z,22.01
2022-09-12T18:43:46.565Z,22.01
2022-09-12T18:46:18.464Z,22.01
2022-09-12T18:48:45.875Z,22.01
2022-09-12T18:51:12.292Z,22.01
2022-09-12T18:53:39.382Z,22.01
2022-09-12T18:56:09.006Z,22.01
2022-09-12T18:58:40.641Z,22.01
2022-09-12T19:01:09.968Z,22.01
2022-09-12T19:03:36.748Z,22.01
2022-09-12T19:06:17.675Z,21.99
2022-09-12T19:08:45.318Z,22.01
2022-09-12T19:11:12.033Z,22.01
2022-09-12T19:13:41.196Z,22.00
2022-09-12T19:16:09.939Z,22.01
2022-09-12T19:18:37.823Z,22.00
2022-09-12T19:21:05.279Z,22.00
2022-09-12T19:23:35.579Z,22.00
2022-09-12T19:26:05.053Z,22.00
2022-09-12T19:28:31.743Z,22.00
2022-09-12T19:30:58.389Z,22.00
2022-09-12T19:33:25.867Z,21.99
2022-09-12T19:35:52.479Z,22.00
2022-09-12T19:38:19.301Z,22.00
2022-09-12T19:40:56.464Z,22.00
2022-09-12T19:43:22.958Z,22.00
2022-09-12T19:45:49.432Z,21.99
2022-09-12T19:48:15.980Z,21.99
2022-09-12T19:50:42.503Z,22.00
2022-09-12T19:53:09.383Z,22.00
2022-09-12T19:55:36.203Z,22.01
2022-09-12T19:58:03.172Z,22.00
2022-09-12T20:00:29.680Z,22.01
2022-09-12T20:02:56.184Z,22.00
2022-09-12T20:05:22.670Z,22.02
2022-09-12T20:07:49.212Z,22.01
2022-09-12T20:10:15.976Z,22.02
2022-09-12T20:12:42.499Z,22.01
2022-09-12T20:15:10.340Z,22.00
2022-09-12T20:17:36.827Z,22.00
2022-09-12T20:20:03.767Z,21.99
2022-09-12T20:22:30.256Z,21.98
2022-09-12T20:24:56.814Z,21.98
2022-09-12T20:27:23.331Z,21.98
2022-09-12T20:29:50.033Z,21.97
2022-09-12T20:32:18.291Z,21.96
2022-09-12T20:34:44.840Z,21.96
2022-09-12T20:37:11.703Z,21.95
2022-09-12T20:39:38.295Z,21.96
2022-09-12T20:42:04.971Z,21.94
2022-09-12T20:44:31.462Z,21.96
2022-09-12T20:46:58.069Z,21.95
2022-09-12T20:49:24.676Z,21.94
2022-09-12T20:51:51.240Z,21.95
2022-09-12T20:54:17.758Z,21.93
2022-09-12T20:56:44.334Z,21.94
2022-09-12T20:59:12.688Z,21.93
2022-09-12T21:01:39.361Z,21.93
2022-09-12T21:04:05.939Z,21.93
2022-09-12T21:06:33.529Z,21.95
2022-09-12T21:09:00.542Z,21.96
2022-09-12T21:11:28.839Z,21.95
2022-09-12T21:13:55.517Z,21.94
2022-09-12T21:16:23.131Z,21.95
2022-09-12T21:18:55.028Z,21.93
2022-09-12T21:21:21.623Z,21.92
2022-09-12T21:23:48.392Z,21.91
2022-09-12T21:26:14.876Z,21.91
2022-09-12T21:28:41.376Z,21.90
2022-09-12T21:31:08.637Z,21.89
2022-09-12T21:33:35.119Z,21.88
2022-09-12T21:36:03.766Z,21.88
2022-09-12T21:38:30.999Z,21.88
2022-09-12T21:41:14.980Z,21.87
2022-09-12T21:43:42.493Z,21.87
2022-09-12T21:46:10.139Z,21.86
2022-09-12T21:48:37.302Z,21.85
2022-09-12T21:51:04.435Z,21.84
2022-09-12T21:53:31.927Z,21.84
2022-09-12T21:56:07.157Z,21.85
2022-09-12T21:58:34.006Z,21.85
2022-09-12T22:01:01.243Z,21.84
2022-09-12T22:03:28.752Z,21.84
2022-09-12T22:06:03.127Z,21.84
2022-09-12T22:08:31.378Z,21.83
2022-09-12T22:11:02.964Z,21.84
2022-09-12T22:13:33.720Z,21.83
2022-09-12T22:16:03.323Z,21.83
2022-09-12T22:18:32.200Z,21.82
2022-09-12T22:21:12.373Z,21.83
2022-09-12T22:23:57.248Z,21.81
2022-09-12T22:26:24.056Z,21.81
2022-09-12T22:28:50.772Z,21.80
2022-09-12T22:31:17.814Z,21.81
2022-09-12T22:33:44.911Z,21.80
2022-09-12T22:36:11.973Z,21.80
2022-09-12T22:38:38.939Z,21.79
2022-09-12T22:41:09.251Z,21.79
2022-09-12T22:43:36.343Z,21.79
2022-09-12T22:46:07.673Z,21.79
2022-09-12T22:48:34.570Z,21.79
2022-09-12T22:51:01.147Z,21.78
2022-09-12T22:53:27.639Z,21.77
2022-09-12T22:55:54.214Z,21.77
2022-09-12T22:58:20.887Z,21.77
2022-09-12T23:00:51.671Z,21.77
2022-09-12T23:03:19.251Z,21.76
2022-09-12T23:05:47.431Z,21.76
2022-09-12T23:08:15.458Z,21.77
2022-09-12T23:10:42.389Z,21.77
2022-09-12T23:13:08.890Z,21.76
2022-09-12T23:15:35.397Z,21.76
2022-09-12T23:18:03.930Z,21.76
2022-09-12T23:20:31.491Z,21.75
2022-09-12T23:22:58.049Z,21.74
2022-09-12T23:25:26.170Z,21.74
2022-09-12T23:27:53.475Z,21.74
2022-09-12T23:30:21.661Z,21.74
2022-09-12T23:32:49.186Z,21.74
2022-09-12T23:35:19.485Z,21.73
2022-09-12T23:37:46.993Z,21.74
2022-09-12T23:40:13.835Z,21.74
2022-09-12T23:42:40.462Z,21.72
2022-09-12T23:45:07.507Z,21.73
2022-09-12T23:47:34.035Z,21.73
2022-09-12T23:50:00.581Z,21.72
2022-09-12T23:52:27.254Z,21.73
2022-09-12T23:54:53.809Z,21.72
2022-09-12T23:57:20.924Z,21.71
2022-09-12T23:59:47.492Z,21.71
